Time;durP1;ratioP1;P1;durP2;ratioP2;P2;SDS_P1;SDS_P2;PMS_P1;PMS_P2;Temp;Humidity;BMP_temperature;BMP_pressure;BME280_temperature;BME280_humidity;BME280_pressure;Samples;Min_cycle;Max_cycle;Signal;HPM_P1;HPM_P2
2021/04/28 00:00:25;;;;;;;10.18;6.78;;;;;;;2.82;64.43;95773.28;6311508;22;20015;-87
2021/04/28 00:02:51;;;;;;;12.80;7.00;;;;;;;3.00;64.24;95789.72;6312892;22;20086;-88
2021/04/28 00:05:17;;;;;;;12.07;7.45;;;;;;;2.83;66.44;95774.81;6312896;22;20105;-88
2021/04/28 00:07:43;;;;;;;11.93;7.18;;;;;;;2.62;62.49;95774.16;6313172;22;19999;-87
2021/04/28 00:10:11;;;;;;;11.60;7.45;;;;;;;2.25;64.26;95737.09;6311578;22;20367;-88
2021/04/28 00:12:37;;;;;;;13.43;7.78;;;;;;;2.48;64.65;95774.47;6312154;22;20006;-87
2021/04/28 00:15:10;;;;;;;15.20;8.00;;;;;;;2.23;64.07;95750.91;6311219;22;20368;-87
2021/04/28 00:17:36;;;;;;;12.57;8.30;;;;;;;2.07;65.52;95721.41;6311780;22;20026;-87
2021/04/28 00:20:07;;;;;;;13.00;7.97;;;;;;;2.19;64.45;95720.00;6311024;22;20360;-87
2021/04/28 00:22:33;;;;;;;16.80;7.68;;;;;;;2.29;66.98;95730.50;6311410;22;20017;-87
2021/04/28 00:24:58;;;;;;;14.77;8.18;;;;;;;1.68;65.34;95658.75;6312499;22;20030;-87
2021/04/28 00:27:24;;;;;;;12.13;7.60;;;;;;;1.92;66.18;95698.78;6312790;22;20090;-88
2021/04/28 00:29:49;;;;;;;17.92;7.88;;;;;;;2.08;65.04;95718.31;6313939;22;20003;-87
2021/04/28 00:32:14;;;;;;;13.23;7.70;;;;;;;1.86;65.38;95721.88;6312879;22;20006;-88
2021/04/28 00:34:40;;;;;;;18.20;8.35;;;;;;;2.29;67.12;95794.03;6312669;22;20114;-88
2021/04/28 00:37:05;;;;;;;14.88;7.53;;;;;;;1.87;64.82;95750.94;6311419;22;20378;-88
2021/04/28 00:39:31;;;;;;;14.82;7.70;;;;;;;1.54;67.03;95697.25;6313519;22;20010;-88
2021/04/28 00:41:57;;;;;;;13.45;6.75;;;;;;;1.54;66.37;95667.06;6312459;22;20018;-87
2021/04/28 00:44:23;;;;;;;12.32;6.85;;;;;;;1.97;65.72;95735.78;6312454;22;20003;-88
2021/04/28 00:46:48;;;;;;;14.45;7.00;;;;;;;1.86;66.20;95725.28;6312601;22;20387;-88
2021/04/28 00:49:14;;;;;;;13.75;6.63;;;;;;;1.38;66.65;95659.00;6313834;22;20086;-87
2021/04/28 00:51:39;;;;;;;15.98;6.50;;;;;;;1.77;66.57;95706.38;6313197;22;20031;-88
2021/04/28 00:54:05;;;;;;;11.75;6.32;;;;;;;2.17;66.71;95776.69;6312240;22;20018;-87
2021/04/28 00:56:31;;;;;;;13.88;6.43;;;;;;;2.26;65.88;95784.16;6312241;22;20003;-88
2021/04/28 00:58:57;;;;;;;13.43;6.28;;;;;;;1.70;66.32;95733.28;6312987;22;20031;-88
2021/04/28 01:01:22;;;;;;;9.85;6.28;;;;;;;1.95;67.23;95794.38;6295643;22;20042;-88
2021/04/28 01:03:49;;;;;;;10.75;6.00;;;;;;;1.99;65.34;95795.81;6312577;22;20003;-87
2021/04/28 01:06:14;;;;;;;16.10;7.10;;;;;;;1.46;66.41;95695.16;6312918;22;20003;-88
2021/04/28 01:08:40;;;;;;;13.15;6.85;;;;;;;1.73;66.19;95753.88;6285502;22;20402;-88
2021/04/28 01:11:06;;;;;;;10.18;6.00;;;;;;;1.40;66.77;95702.16;6312386;22;20004;-88
2021/04/28 01:13:31;;;;;;;13.20;5.30;;;;;;;1.62;65.32;95756.03;6285317;22;19999;-88
2021/04/28 01:15:57;;;;;;;9.85;5.55;;;;;;;1.79;66.95;95774.41;6285250;22;20007;-87
2021/04/28 01:18:23;;;;;;;8.00;5.35;;;;;;;1.67;67.31;95748.28;6285430;22;20007;-87
2021/04/28 01:20:49;;;;;;;10.07;5.55;;;;;;;1.95;66.60;95775.63;6312302;22;19999;-88
2021/04/28 01:23:18;;;;;;;11.75;5.90;;;;;;;1.00;65.96;95683.41;6312209;22;20314;-88
2021/04/28 01:25:44;;;;;;;14.25;6.18;;;;;;;1.57;66.58;95792.81;6312897;22;20062;-88
2021/04/28 01:28:24;;;;;;;9.05;5.50;;;;;;;1.54;66.53;95774.88;6288264;22;19996;-88
2021/04/28 01:31:05;;;;;;;10.65;5.57;;;;;;;1.46;67.01;95760.16;6286713;22;20268;-88
2021/04/28 01:33:46;;;;;;;21.92;6.53;;;;;;;1.38;68.70;95763.38;6314008;22;19999;-87
2021/04/28 01:36:20;;;;;;;12.15;6.07;;;;;;;1.11;68.28;95752.78;6287004;22;20000;-88
2021/04/28 01:38:49;;;;;;;11.57;5.38;;;;;;;1.27;66.59;95801.03;6286967;22;20317;-88
2021/04/28 01:44:37;;;;;;;14.50;5.82;;;;;;;1.43;68.20;95795.00;6315152;22;20010;-88
2021/04/28 01:47:03;;;;;;;14.38;5.97;;;;;;;1.14;68.69;95757.31;6287028;22;20008;-88
2021/04/28 01:49:31;;;;;;;11.95;6.45;;;;;;;0.95;67.90;95753.44;6314860;22;20058;-88
2021/04/28 01:51:57;;;;;;;12.90;6.20;;;;;;;1.11;68.60;95766.16;6286910;22;20003;-88
2021/04/28 01:54:23;;;;;;;12.98;5.35;;;;;;;0.90;67.21;95730.59;6286907;22;20064;-88
2021/04/28 01:56:51;;;;;;;13.73;5.75;;;;;;;1.05;68.61;95750.56;6286925;22;20029;-88
2021/04/28 01:59:18;;;;;;;8.70;5.30;;;;;;;0.71;67.32;95724.03;6313674;22;20006;-88
2021/04/28 02:01:46;;;;;;;10.35;5.78;;;;;;;0.84;69.63;95750.19;6286736;22;20064;-88
2021/04/28 02:04:11;;;;;;;16.63;5.97;;;;;;;0.88;70.54;95758.91;6313724;22;20390;-88
2021/04/28 02:06:39;;;;;;;10.23;5.90;;;;;;;0.56;70.37;95696.03;6313811;22;19999;-88
2021/04/28 02:09:05;;;;;;;8.07;5.00;;;;;;;0.79;68.44;95743.38;6313720;22;20008;-89
2021/04/28 02:11:30;;;;;;;12.80;5.60;;;;;;;0.75;68.64;95756.09;6286753;22;19999;-89
2021/04/28 02:13:59;;;;;;;8.63;5.13;;;;;;;0.77;68.64;95748.41;6313760;22;20010;-88
2021/04/28 02:16:27;;;;;;;7.93;5.35;;;;;;;0.70;68.16;95735.91;6286647;22;20447;-88
2021/04/28 02:18:52;;;;;;;11.02;5.35;;;;;;;0.52;68.96;95706.78;6286669;22;19999;-88
2021/04/28 02:21:18;;;;;;;13.57;5.13;;;;;;;0.07;69.23;95633.50;6286647;22;20003;-88
2021/04/28 02:23:45;;;;;;;10.20;5.03;;;;;;;0.37;68.33;95688.72;6286515;22;20089;-88
2021/04/28 02:26:11;;;;;;;9.60;5.40;;;;;;;0.48;68.48;95727.47;6313514;22;19999;-88
2021/04/28 02:28:37;;;;;;;8.30;5.10;;;;;;;0.32;68.92;95689.19;6313525;22;20379;-88
2021/04/28 02:31:03;;;;;;;8.85;5.10;;;;;;;0.50;68.97;95717.13;6286560;22;20011;-88
2021/04/28 02:33:28;;;;;;;12.23;5.28;;;;;;;0.71;69.06;95753.47;6286856;22;20403;-88
2021/04/28 02:35:58;;;;;;;11.55;5.78;;;;;;;0.85;69.94;95770.41;6286835;22;20007;-88
2021/04/28 02:38:30;;;;;;;11.60;5.50;;;;;;;0.50;70.48;95703.78;6313674;22;20010;-88
2021/04/28 02:41:00;;;;;;;9.07;5.50;;;;;;;0.91;69.88;95750.84;6286686;22;19999;-87
2021/04/28 02:43:25;;;;;;;15.48;5.78;;;;;;;0.93;69.79;95755.78;6314174;22;20006;-88
2021/04/28 02:45:53;;;;;;;10.23;5.97;;;;;;;0.49;68.07;95688.91;6313791;22;19999;-87
2021/04/28 02:48:20;;;;;;;8.40;5.07;;;;;;;0.71;68.81;95724.03;6286759;22;20356;-88
2021/04/28 02:50:46;;;;;;;16.80;5.72;;;;;;;0.57;69.54;95705.56;6313445;22;20268;-88
2021/04/28 02:53:14;;;;;;;8.43;5.13;;;;;;;0.35;68.67;95653.63;6313799;22;20003;-88
2021/04/28 02:55:40;;;;;;;10.25;4.90;;;;;;;0.98;68.72;95745.34;6313663;22;20089;-87
2021/04/28 02:58:06;;;;;;;14.18;5.40;;;;;;;0.93;67.01;95753.84;6286114;22;20295;-88
2021/04/28 03:00:33;;;;;;;9.93;5.18;;;;;;;0.74;68.33;95744.59;6290161;22;20048;-87
2021/04/28 03:02:59;;;;;;;10.85;7.28;;;;;;;0.70;66.99;95714.53;6312013;22;20004;-87
2021/04/28 03:05:25;;;;;;;11.23;7.50;;;;;;;0.69;66.90;95720.25;6313689;22;20003;-88
2021/04/28 03:07:53;;;;;;;11.05;7.05;;;;;;;1.11;67.26;95774.19;6311965;22;20003;-88
2021/04/28 03:10:19;;;;;;;14.25;7.63;;;;;;;1.14;67.66;95774.13;6313184;22;20003;-88
2021/04/28 03:12:46;;;;;;;17.85;8.13;;;;;;;1.21;68.44;95779.34;6312878;22;20010;-88
2021/04/28 03:15:15;;;;;;;12.75;7.80;;;;;;;0.97;68.35;95732.41;6312001;22;20007;-88
2021/04/28 03:17:41;;;;;;;11.55;7.28;;;;;;;1.23;66.88;95776.28;6314348;22;20267;-88
2021/04/28 03:20:08;;;;;;;12.40;6.93;;;;;;;1.16;66.90;95757.66;6312004;22;19999;-88
2021/04/28 03:22:34;;;;;;;10.27;6.30;;;;;;;1.04;65.54;95737.63;6314042;22;20268;-88
2021/04/28 03:25:00;;;;;;;8.63;5.68;;;;;;;1.34;66.87;95782.19;6312368;22;20006;-88
2021/04/28 03:27:26;;;;;;;18.33;5.78;;;;;;;0.94;67.49;95733.97;6311086;22;20007;-88
2021/04/28 03:29:51;;;;;;;9.05;5.35;;;;;;;0.85;65.76;95733.72;6311742;22;20051;-88
2021/04/28 03:32:17;;;;;;;8.43;5.10;;;;;;;1.04;67.29;95753.66;6313001;22;20128;-88
2021/04/28 03:34:42;;;;;;;24.33;5.63;;;;;;;1.35;68.39;95786.34;6311698;22;20003;-88
2021/04/28 03:37:08;;;;;;;11.48;5.78;;;;;;;1.12;67.72;95755.06;6312896;22;20004;-89
2021/04/28 03:39:34;;;;;;;10.43;5.93;;;;;;;0.48;67.03;95668.69;6311613;22;20018;-88
2021/04/28 03:41:59;;;;;;;17.98;5.70;;;;;;;1.02;67.94;95748.72;6312883;22;20003;-88
2021/04/28 03:44:26;;;;;;;16.25;5.97;;;;;;;1.19;68.96;95762.19;6313631;22;19999;-88
2021/04/28 03:46:51;;;;;;;16.15;5.68;;;;;;;0.99;67.39;95767.50;6311508;22;20372;-88
2021/04/28 03:49:17;;;;;;;11.65;5.60;;;;;;;0.99;67.45;95762.91;6312825;22;19995;-88
2021/04/28 03:51:44;;;;;;;12.40;6.10;;;;;;;1.01;69.59;95746.44;6312558;22;20003;-88
2021/04/28 03:54:10;;;;;;;11.45;5.72;;;;;;;1.22;67.37;95786.19;6311253;22;20053;-86
2021/04/28 03:56:35;;;;;;;12.65;6.03;;;;;;;1.44;67.86;95797.28;6311164;22;20029;-86
2021/04/28 03:59:01;;;;;;;18.02;5.68;;;;;;;0.98;66.47;95728.56;6311035;22;20268;-86
2021/04/28 04:01:27;;;;;;;18.55;6.05;;;;;;;1.53;66.98;95788.69;6310817;22;20445;-86
2021/04/28 04:03:52;;;;;;;11.50;5.72;;;;;;;1.11;67.05;95712.66;6312688;22;20286;-85
2021/04/28 04:06:18;;;;;;;9.88;5.53;;;;;;;1.32;66.46;95733.66;6312410;22;20041;-86
2021/04/28 04:08:43;;;;;;;8.80;5.70;;;;;;;1.42;66.72;95774.75;6311242;22;20057;-87
2021/04/28 04:11:09;;;;;;;10.43;5.78;;;;;;;1.37;67.70;95741.19;6312651;22;19999;-86
2021/04/28 04:13:34;;;;;;;9.45;5.95;;;;;;;1.52;66.12;95750.47;6312637;22;19999;-86
2021/04/28 04:16:00;;;;;;;12.40;6.60;;;;;;;1.43;66.01;95752.94;6310924;22;20014;-86
2021/04/28 04:18:26;;;;;;;11.38;6.05;;;;;;;1.51;66.48;95745.53;6312631;22;20030;-86
2021/04/28 04:20:52;;;;;;;17.17;6.93;;;;;;;1.65;65.86;95744.47;6312253;22;20003;-86
2021/04/28 04:23:17;;;;;;;17.40;6.47;;;;;;;1.60;64.98;95723.53;6311192;22;20344;-86
2021/04/28 04:25:43;;;;;;;22.27;6.38;;;;;;;2.04;67.06;95798.00;6312423;22;20009;-86
2021/04/28 04:28:08;;;;;;;15.05;6.38;;;;;;;1.99;67.18;95795.81;6311151;22;19999;-87
2021/04/28 04:30:34;;;;;;;18.80;6.07;;;;;;;1.79;65.98;95760.25;6312288;22;20003;-87
2021/04/28 04:32:59;;;;;;;18.92;6.68;;;;;;;1.66;66.02;95759.41;6310808;22;20023;-85
2021/04/28 04:35:24;;;;;;;14.93;6.30;;;;;;;1.54;65.50;95750.03;6310799;22;20295;-87
2021/04/28 04:37:50;;;;;;;16.30;6.40;;;;;;;1.48;66.10;95763.16;6310966;22;20007;-86
2021/04/28 04:40:16;;;;;;;14.95;6.28;;;;;;;1.40;65.56;95736.97;6312094;22;20084;-88
2021/04/28 04:42:42;;;;;;;9.32;6.20;;;;;;;1.57;66.05;95773.31;6313934;22;20014;-88
2021/04/28 04:45:08;;;;;;;11.52;5.93;;;;;;;1.41;66.20;95741.91;6314406;22;20076;-84
2021/04/28 04:47:34;;;;;;;12.18;6.07;;;;;;;1.62;65.63;95782.81;6311889;22;20011;-85
2021/04/28 04:50:00;;;;;;;14.50;5.95;;;;;;;1.30;66.46;95738.66;6310705;22;20007;-84
2021/04/28 04:52:27;;;;;;;16.40;6.32;;;;;;;1.54;66.53;95752.72;6310481;22;20007;-85
2021/04/28 04:54:52;;;;;;;18.10;6.38;;;;;;;1.81;65.04;95760.59;6310848;22;20007;-85
2021/04/28 04:57:18;;;;;;;12.73;5.57;;;;;;;1.93;65.46;95767.25;6310634;22;20045;-85
2021/04/28 04:59:43;;;;;;;9.63;5.90;;;;;;;2.33;64.37;95803.50;6310516;22;20030;-86
2021/04/28 05:02:09;;;;;;;15.32;5.80;;;;;;;2.46;63.92;95809.00;6310364;22;20304;-85
2021/04/28 05:04:34;;;;;;;13.23;6.43;;;;;;;1.80;63.52;95695.56;6310399;22;20090;-84
2021/04/28 05:07:00;;;;;;;15.10;6.72;;;;;;;2.18;64.21;95770.16;6311034;22;20009;-84
2021/04/28 05:09:25;;;;;;;13.70;7.20;;;;;;;2.21;64.18;95749.81;6314485;22;19996;-85
2021/04/28 05:11:51;;;;;;;14.88;7.68;;;;;;;2.13;63.89;95721.66;6313893;22;20004;-87
2021/04/28 05:14:16;;;;;;;25.52;8.40;;;;;;;2.23;63.80;95734.81;6311676;22;20098;-83
2021/04/28 05:16:42;;;;;;;22.92;9.90;;;;;;;2.45;64.84;95759.22;6312465;22;20279;-84
2021/04/28 05:19:07;;;;;;;18.95;10.43;;;;;;;2.61;65.37;95759.22;6312429;22;20006;-83
2021/04/28 05:21:33;;;;;;;18.65;10.88;;;;;;;2.62;65.06;95758.06;6312753;22;20114;-84
2021/04/28 05:23:59;;;;;;;20.98;10.45;;;;;;;2.89;65.04;95794.59;6312544;22;20014;-84
2021/04/28 05:26:24;;;;;;;17.27;9.55;;;;;;;2.52;64.01;95732.25;6312510;22;20078;-84
2021/04/28 05:28:50;;;;;;;24.45;10.25;;;;;;;2.52;63.59;95705.44;6313817;22;20409;-85
2021/04/28 05:31:15;;;;;;;18.92;9.57;;;;;;;2.65;63.87;95742.28;6313748;22;20025;-84
2021/04/28 05:33:41;;;;;;;22.83;8.07;;;;;;;3.07;64.31;95794.91;6310884;22;20003;-84
2021/04/28 05:36:07;;;;;;;11.35;6.28;;;;;;;3.12;62.57;95788.28;6312187;22;20260;-84
2021/04/28 05:38:33;;;;;;;11.52;5.95;;;;;;;2.80;63.13;95725.44;6312292;22;20271;-84
2021/04/28 05:40:59;;;;;;;12.15;6.30;;;;;;;3.09;61.64;95767.63;6313734;22;20070;-84
2021/04/28 05:43:24;;;;;;;11.85;6.47;;;;;;;2.77;61.20;95718.25;6312373;22;20086;-84
2021/04/28 05:45:50;;;;;;;10.18;5.85;;;;;;;3.01;62.22;95732.19;6312344;22;20310;-84
2021/04/28 05:48:16;;;;;;;14.75;6.82;;;;;;;3.14;60.26;95756.38;6312290;22;19995;-84
2021/04/28 05:50:43;;;;;;;12.57;6.05;;;;;;;3.15;61.32;95758.66;6312138;22;20102;-84
2021/04/28 05:53:10;;;;;;;10.35;6.07;;;;;;;3.46;60.07;95782.38;6312125;22;19999;-84
2021/04/28 05:55:37;;;;;;;10.77;6.07;;;;;;;3.31;61.63;95741.03;6313377;22;20066;-84
2021/04/28 05:58:06;;;;;;;10.60;6.03;;;;;;;3.52;59.62;95745.81;6312054;22;20000;-84
2021/04/28 06:00:33;;;;;;;11.00;5.32;;;;;;;3.73;59.97;95755.22;6313266;22;20019;-84
2021/04/28 06:02:58;;;;;;;9.55;5.05;;;;;;;3.89;60.14;95763.19;6286481;22;20006;-84
2021/04/28 06:05:24;;;;;;;8.68;4.60;;;;;;;3.72;58.21;95726.06;6286337;22;20011;-83
2021/04/28 06:07:49;;;;;;;11.20;5.05;;;;;;;3.81;56.85;95720.81;6286323;22;20364;-84
2021/04/28 06:10:15;;;;;;;11.30;5.30;;;;;;;3.97;56.87;95747.59;6286294;22;20097;-84
2021/04/28 06:12:41;;;;;;;7.05;4.32;;;;;;;3.89;57.01;95740.94;6285689;22;20045;-83
2021/04/28 06:15:08;;;;;;;7.40;4.68;;;;;;;4.11;56.12;95759.88;6286134;22;20030;-84
2021/04/28 06:17:34;;;;;;;10.38;6.00;;;;;;;3.98;56.13;95726.84;6312724;22;20057;-83
2021/04/28 06:20:00;;;;;;;10.55;5.70;;;;;;;3.94;56.96;95706.25;6286087;22;20007;-84
2021/04/28 06:22:25;;;;;;;9.77;5.78;;;;;;;4.03;57.30;95702.88;6287617;22;20378;-84
2021/04/28 06:24:51;;;;;;;16.98;6.95;;;;;;;4.42;56.56;95755.50;6313344;22;20003;-84
2021/04/28 06:27:17;;;;;;;12.35;5.38;;;;;;;4.20;55.06;95723.09;6313381;22;20003;-84
2021/04/28 06:29:42;;;;;;;13.73;6.45;;;;;;;4.50;56.44;95747.94;6310340;22;20035;-84
2021/04/28 06:32:09;;;;;;;12.32;5.82;;;;;;;4.60;56.16;95746.09;6285088;22;20003;-84
2021/04/28 06:34:34;;;;;;;11.57;5.65;;;;;;;4.40;56.29;95701.38;6285333;22;20015;-84
2021/04/28 06:37:00;;;;;;;12.07;5.72;;;;;;;4.58;57.05;95710.81;6313136;22;20055;-84
2021/04/28 06:39:26;;;;;;;9.48;5.30;;;;;;;4.26;54.54;95668.78;6285881;22;20003;-85
2021/04/28 06:41:51;;;;;;;9.00;5.78;;;;;;;4.54;54.64;95680.59;6285862;22;20356;-85
2021/04/28 06:44:17;;;;;;;10.55;5.80;;;;;;;4.69;53.73;95687.03;6285840;22;20364;-84
2021/04/28 06:46:43;;;;;;;8.65;4.75;;;;;;;4.73;53.98;95693.03;6285673;22;20268;-84
2021/04/28 06:49:08;;;;;;;9.77;5.72;;;;;;;5.07;53.09;95718.44;6313030;22;19995;-84
2021/04/28 06:51:33;;;;;;;11.70;5.47;;;;;;;5.22;54.92;95722.91;6285610;22;20017;-85
2021/04/28 06:54:00;;;;;;;14.77;5.40;;;;;;;4.86;52.90;95658.03;6312803;22;20003;-84
2021/04/28 06:56:30;;;;;;;10.32;5.40;;;;;;;5.13;54.70;95681.69;6285724;22;19999;-85
2021/04/28 06:58:55;;;;;;;10.18;4.90;;;;;;;5.10;52.42;95672.53;6312776;22;20370;-85
2021/04/28 07:01:21;;;;;;;7.43;5.03;;;;;;;5.33;52.13;95694.88;6299040;22;20019;-86
2021/04/28 07:03:46;;;;;;;9.75;4.95;;;;;;;5.43;51.66;95674.84;6313057;22;20271;-85
2021/04/28 07:06:12;;;;;;;11.43;4.80;;;;;;;5.76;51.13;95727.16;6312980;22;20315;-85
2021/04/28 07:08:38;;;;;;;8.90;5.60;;;;;;;5.83;52.85;95703.84;6312835;22;20052;-85
2021/04/28 07:11:04;;;;;;;10.77;5.57;;;;;;;5.86;52.07;95695.63;6311355;22;20284;-85
2021/04/28 07:13:30;;;;;;;10.23;5.25;;;;;;;6.15;51.75;95719.59;6311067;22;20003;-85
2021/04/28 07:15:56;;;;;;;8.48;4.57;;;;;;;6.27;50.42;95696.41;6312471;22;20010;-85
2021/04/28 07:18:22;;;;;;;8.07;5.15;;;;;;;6.14;48.07;95676.91;6311034;22;20003;-87
2021/04/28 07:20:47;;;;;;;15.30;5.28;;;;;;;6.39;46.68;95703.66;6311320;22;20278;-85
2021/04/28 07:23:13;;;;;;;7.78;4.97;;;;;;;6.49;47.34;95699.00;6312777;22;20027;-85
2021/04/28 07:25:38;;;;;;;8.02;5.10;;;;;;;6.69;47.41;95720.94;6310829;22;20014;-85
2021/04/28 07:28:04;;;;;;;8.80;5.72;;;;;;;6.55;46.68;95664.84;6312496;22;20011;-84
2021/04/28 07:30:29;;;;;;;11.85;5.00;;;;;;;6.94;45.45;95703.75;6310763;22;20078;-85
2021/04/28 07:32:55;;;;;;;7.78;3.63;;;;;;;7.13;43.96;95706.44;6312716;22;20308;-85
2021/04/28 07:35:22;;;;;;;7.35;4.00;;;;;;;7.00;44.92;95652.59;6311355;22;20003;-85
2021/04/28 07:37:49;;;;;;;8.43;3.75;;;;;;;7.23;43.69;95672.84;6311043;22;20003;-85
2021/04/28 07:40:15;;;;;;;11.05;4.10;;;;;;;7.50;42.86;95691.72;6313377;22;20291;-85
2021/04/28 07:42:41;;;;;;;7.30;3.47;;;;;;;7.47;42.55;95672.97;6312398;22;20029;-85
2021/04/28 07:45:07;;;;;;;11.02;4.40;;;;;;;7.73;42.65;95693.03;6307769;22;20007;-86
2021/04/28 07:47:33;;;;;;;15.30;3.75;;;;;;;7.86;42.33;95695.56;6310973;22;20074;-85
2021/04/28 07:49:58;;;;;;;8.65;3.60;;;;;;;7.68;40.57;95655.81;6312450;22;20071;-85
2021/04/28 07:52:24;;;;;;;7.28;4.47;;;;;;;7.79;38.80;95655.34;6312274;22;20014;-85
2021/04/28 07:54:49;;;;;;;8.63;3.50;;;;;;;8.14;40.18;95686.13;6311146;22;20007;-85
2021/04/28 07:57:15;;;;;;;7.82;3.60;;;;;;;8.13;40.39;95659.56;6312702;22;20049;-85
2021/04/28 07:59:41;;;;;;;7.88;4.00;;;;;;;8.22;37.75;95664.94;6310836;22;20010;-85
2021/04/28 08:02:08;;;;;;;9.48;3.78;;;;;;;8.38;38.95;95667.28;6286488;22;20019;-86
2021/04/28 08:04:33;;;;;;;8.30;2.95;;;;;;;8.39;37.88;95652.53;6312311;22;20010;-85
2021/04/28 08:06:59;;;;;;;5.30;2.90;;;;;;;8.46;37.56;95640.63;6285054;22;20003;-85
2021/04/28 08:09:24;;;;;;;7.68;3.00;;;;;;;8.59;35.66;95637.69;6284111;22;20003;-85
2021/04/28 08:11:50;;;;;;;5.95;3.05;;;;;;;8.75;34.82;95644.66;6285051;22;20019;-85
2021/04/28 08:14:15;;;;;;;4.30;2.50;;;;;;;8.71;34.87;95619.72;6282852;22;20060;-83
2021/04/28 08:16:41;;;;;;;5.50;2.38;;;;;;;8.95;36.07;95636.69;6284368;22;20623;-84
2021/04/28 08:19:06;;;;;;;7.78;2.85;;;;;;;9.22;35.06;95662.81;6283566;22;20000;-84
2021/04/28 08:21:32;;;;;;;7.50;2.63;;;;;;;9.16;35.01;95632.13;6311923;22;19999;-84
2021/04/28 08:23:57;;;;;;;8.40;2.85;;;;;;;8.76;35.60;95557.56;6310859;22;20034;-84
2021/04/28 08:26:23;;;;;;;6.65;2.88;;;;;;;9.31;36.40;95624.75;6284946;22;20157;-84
2021/04/28 08:28:49;;;;;;;4.80;2.97;;;;;;;9.23;36.11;95601.22;6284679;22;20011;-84
2021/04/28 08:31:18;;;;;;;3.95;2.75;;;;;;;9.35;35.43;95603.66;6284873;22;20007;-84
2021/04/28 08:33:44;;;;;;;8.60;2.63;;;;;;;9.32;35.74;95582.16;6312247;22;20006;-84
2021/04/28 08:36:10;;;;;;;7.45;2.95;;;;;;;9.29;36.91;95567.59;6311668;22;20049;-84
2021/04/28 08:38:37;;;;;;;5.78;3.13;;;;;;;9.92;36.54;95643.28;6284804;22;20372;-84
2021/04/28 08:41:05;;;;;;;7.30;2.78;;;;;;;9.27;35.91;95534.03;6311574;22;20033;-84
2021/04/28 08:43:32;;;;;;;17.80;3.90;;;;;;;9.88;36.37;95599.31;6282647;22;20027;-84
2021/04/28 08:45:59;;;;;;;6.82;3.45;;;;;;;9.86;37.11;95596.34;6282719;22;20375;-84
2021/04/28 08:48:25;;;;;;;12.52;3.30;;;;;;;9.54;36.30;95541.88;6284492;22;20086;-84
2021/04/28 08:50:51;;;;;;;3.45;2.60;;;;;;;10.08;36.11;95607.50;6310167;22;20030;-84
2021/04/28 08:53:18;;;;;;;4.65;2.58;;;;;;;10.50;35.54;95641.66;6311759;22;20003;-85
2021/04/28 08:55:44;;;;;;;5.45;2.92;;;;;;;10.56;34.16;95626.19;6312055;22;20356;-84
2021/04/28 08:58:10;;;;;;;9.23;3.17;;;;;;;10.33;35.15;95595.28;6311669;22;20084;-85
2021/04/28 09:00:37;;;;;;;7.65;3.28;;;;;;;10.57;35.64;95619.53;6289350;22;20015;-85
2021/04/28 09:03:03;;;;;;;5.80;2.83;;;;;;;10.70;35.81;95625.34;6309908;22;20007;-85
2021/04/28 09:05:31;;;;;;;5.85;3.00;;;;;;;10.74;34.08;95625.91;6310552;22;20090;-85
2021/04/28 09:07:57;;;;;;;4.07;2.55;;;;;;;10.95;34.81;95625.91;6310499;22;20003;-84
2021/04/28 09:10:24;;;;;;;5.82;3.05;;;;;;;11.10;34.05;95612.22;6311958;22;19999;-85
2021/04/28 09:12:58;;;;;;;4.88;2.90;;;;;;;10.75;33.09;95556.78;6312022;22;20056;-85
2021/04/28 09:15:47;;;;;;;9.02;3.17;;;;;;;10.78;34.35;95557.81;6310418;22;20006;-85
2021/04/28 09:18:15;;;;;;;5.65;2.90;;;;;;;11.29;32.36;95616.13;6311855;22;20421;-85
2021/04/28 09:20:52;;;;;;;5.68;3.10;;;;;;;11.21;32.76;95569.59;6311828;22;20025;-85
2021/04/28 09:23:20;;;;;;;8.40;3.28;;;;;;;11.28;31.78;95565.69;6311939;22;20367;-84
2021/04/28 09:25:52;;;;;;;5.13;2.92;;;;;;;11.72;32.72;95599.94;6310405;22;20003;-85
2021/04/28 09:28:37;;;;;;;9.57;3.38;;;;;;;11.79;31.30;95597.53;6310489;22;20003;-85
2021/04/28 09:31:05;;;;;;;10.18;3.10;;;;;;;11.88;30.60;95593.16;6310606;22;20000;-85
2021/04/28 09:33:31;;;;;;;6.30;3.00;;;;;;;11.86;31.20;95563.72;6309895;22;20003;-84
2021/04/28 09:35:59;;;;;;;4.32;2.70;;;;;;;11.97;32.28;95549.44;6310226;22;20045;-85
2021/04/28 09:38:25;;;;;;;3.85;3.15;;;;;;;12.19;31.27;95559.69;6307075;22;20086;-85
2021/04/28 09:40:56;;;;;;;7.15;2.97;;;;;;;12.43;30.22;95578.41;6309203;22;20390;-84
2021/04/28 09:43:35;;;;;;;10.57;3.20;;;;;;;12.45;30.38;95573.19;6312064;22;20078;-85
2021/04/28 09:46:00;;;;;;;6.30;3.65;;;;;;;12.55;28.94;95561.59;6310387;22;20149;-85
2021/04/28 09:48:26;;;;;;;6.75;2.90;;;;;;;12.81;31.52;95569.63;6310423;22;20365;-84
2021/04/28 09:51:09;;;;;;;5.55;3.10;;;;;;;12.84;28.75;95562.47;6311583;22;20379;-85
2021/04/28 09:53:35;;;;;;;4.60;2.75;;;;;;;12.72;29.50;95520.06;6311051;22;20007;-85
2021/04/28 09:56:01;;;;;;;4.20;2.92;;;;;;;12.77;28.65;95513.88;6310718;22;20026;-85
2021/04/28 09:58:49;;;;;;;4.40;2.97;;;;;;;13.05;27.02;95566.47;6312260;22;20053;-85
2021/04/28 10:01:30;;;;;;;5.80;2.72;;;;;;;13.19;30.19;95542.19;6311370;22;20338;-85
2021/04/28 10:03:56;;;;;;;6.13;3.25;;;;;;;13.20;30.05;95521.88;6286834;22;20014;-85
2021/04/28 10:06:40;;;;;;;4.75;2.80;;;;;;;13.65;30.95;95555.41;6307548;22;20291;-85
2021/04/28 10:09:28;;;;;;;5.95;3.05;;;;;;;13.62;26.79;95550.94;6286143;22;20026;-85
2021/04/28 10:11:54;;;;;;;5.47;2.60;;;;;;;13.51;27.12;95529.84;6311264;22;20029;-86
2021/04/28 10:14:20;;;;;;;5.25;2.70;;;;;;;13.59;28.28;95511.03;6286159;22;20019;-85
2021/04/28 10:16:47;;;;;;;4.45;2.70;;;;;;;14.02;27.83;95554.38;6283824;22;20022;-85
2021/04/28 10:19:15;;;;;;;4.53;2.53;;;;;;;13.90;28.99;95520.88;6313214;22;20037;-85
2021/04/28 10:21:42;;;;;;;8.00;2.63;;;;;;;14.23;28.36;95543.91;6312820;22;20075;-84
2021/04/28 10:24:10;;;;;;;9.88;2.83;;;;;;;14.36;28.72;95550.31;6285054;22;20006;-85
2021/04/28 10:26:38;;;;;;;3.45;2.53;;;;;;;14.40;26.82;95533.66;6310686;22;20009;-85
2021/04/28 10:29:06;;;;;;;3.53;2.30;;;;;;;14.69;27.12;95532.31;6285647;22;20125;-84
2021/04/28 10:31:32;;;;;;;3.85;2.28;;;;;;;14.79;28.28;95514.38;6312061;22;20003;-85
2021/04/28 10:34:01;;;;;;;5.28;2.55;;;;;;;14.81;28.27;95505.69;6285824;22;20025;-85
2021/04/28 10:36:27;;;;;;;6.85;2.50;;;;;;;15.16;27.22;95524.09;6284877;22;20031;-85
2021/04/28 10:38:53;;;;;;;3.30;2.28;;;;;;;14.90;27.48;95489.72;6285661;22;20022;-85
2021/04/28 10:41:42;;;;;;;5.57;2.47;;;;;;;15.35;27.64;95524.97;6285888;22;20394;-85
2021/04/28 10:44:30;;;;;;;4.90;2.72;;;;;;;15.54;27.09;95513.38;6274366;22;20014;-86
2021/04/28 10:47:14;;;;;;;7.28;2.65;;;;;;;15.63;25.48;95513.81;6285088;22;20003;-85
2021/04/28 10:50:01;;;;;;;4.13;2.50;;;;;;;16.05;26.94;95513.69;6285438;22;20360;-86
2021/04/28 10:52:28;;;;;;;4.18;1.90;;;;;;;16.03;25.93;95507.97;6312944;22;20003;-85
2021/04/28 10:54:54;;;;;;;5.32;2.70;;;;;;;16.22;26.83;95517.72;6291297;22;20003;-86
2021/04/28 10:57:40;;;;;;;3.35;2.17;;;;;;;16.28;25.05;95506.69;6290764;22;20003;-86
2021/04/28 11:00:21;;;;;;;3.50;2.22;;;;;;;16.32;25.93;95498.94;6287689;22;20007;-85
2021/04/28 11:02:48;;;;;;;4.00;2.70;;;;;;;16.67;26.24;95508.97;6311154;22;20007;-86
2021/04/28 11:05:27;;;;;;;6.53;2.42;;;;;;;16.62;26.76;95498.84;6288172;22;20006;-85
2021/04/28 11:07:57;;;;;;;5.80;2.92;;;;;;;16.86;26.57;95478.09;6286921;22;19999;-87
2021/04/28 11:10:34;;;;;;;6.95;2.72;;;;;;;17.09;24.71;95494.97;6285545;22;20026;-86
2021/04/28 11:13:05;;;;;;;6.13;2.80;;;;;;;17.39;26.54;95498.25;6285542;22;20007;-86
2021/04/28 11:15:43;;;;;;;4.43;2.60;;;;;;;17.41;25.20;95494.97;6285576;22;20010;-85
2021/04/28 11:18:43;;;;;;;5.35;2.63;;;;;;;17.57;25.49;95484.97;6289663;22;20010;-86
2021/04/28 11:21:17;;;;;;;5.43;2.80;;;;;;;17.68;26.04;95490.28;6220646;22;20016;-87
2021/04/28 11:24:05;;;;;;;6.95;2.60;;;;;;;17.50;26.21;95481.59;6314652;22;20053;-85
2021/04/28 11:26:30;;;;;;;3.28;2.20;;;;;;;17.76;23.30;95489.19;6287615;22;20009;-85
2021/04/28 11:28:57;;;;;;;5.70;2.88;;;;;;;17.83;23.95;95481.56;6285464;22;20035;-86
2021/04/28 11:31:23;;;;;;;5.13;2.20;;;;;;;17.88;23.82;95486.22;6282142;22;20042;-85
2021/04/28 11:33:48;;;;;;;6.38;2.42;;;;;;;17.98;26.08;95468.81;6312224;22;19999;-86
2021/04/28 11:36:16;;;;;;;7.82;2.70;;;;;;;18.02;24.72;95436.28;6312386;22;20003;-86
2021/04/28 11:38:45;;;;;;;3.38;2.40;;;;;;;18.14;23.97;95469.75;6312419;22;20102;-85